KCRG/CRG METAR and TAF weather

Enter ICAO airport designator
Station Type Date Time Source
KCRG METAR 2020/12/06 01:53 UTC NOAA

KCRG 060153Z 00000KT 10SM CLR 10/07 A3008 RMK AO2 SLP185 T01000067


Station Type Date Time Source
KCRG Decoded METAR 2020/12/06 01:53 UTC NOAA

JACKSONVILLE CRAIG MUN, FL, United States (KCRG) 30-20N 81-31W 13M
Dec 05, 2020 - 08:53 PM EST / 2020.12.06 0153 UTC
Wind: Calm:0
Visibility: 10 mile(s):0
Sky conditions: clear
Temperature: 50.0 F (10.0 C)
Dew Point: 44.1 F (6.7 C)
Relative Humidity: 79%
Pressure (altimeter): 30.08 in. Hg (1018 hPa)
ob: KCRG 060153Z 00000KT 10SM CLR 10/07 A3008 RMK AO2 SLP185 T01000067
cycle: 2

Station Type Date Time Source
KCRG TAF 2020/12/05 19:34 UTC NOAA

TAF KCRG 051832Z 0519/0618 VRB05KT P6SM SKC
FM060100 32004KT P6SM SCT250

Example: see airport list